Time;durP1;ratioP1;P1;durP2;ratioP2;P2;SDS_P1;SDS_P2;PMS_P1;PMS_P2;Temp;Humidity;BMP_temperature;BMP_pressure;BME280_temperature;BME280_humidity;BME280_pressure;Samples;Min_cycle;Max_cycle;Signal;HPM_P1;HPM_P2
2022/08/20 00:00:43;;;;;;;11.27;10.18;;;24.80;1.00;;;;;;5092800;28;20150;-59
2022/08/20 00:03:31;;;;;;;11.52;9.82;;;24.80;1.00;;;;;;5104656;28;20113;-59
2022/08/20 00:06:04;;;;;;;11.13;9.30;;;24.80;1.00;;;;;;5112853;28;20114;-59
2022/08/20 00:08:30;;;;;;;10.60;9.43;;;24.80;1.00;;;;;;5111189;28;20035;-59
2022/08/20 00:10:57;;;;;;;9.63;8.55;;;24.80;1.00;;;;;;5112606;28;20028;-59
2022/08/20 00:13:30;;;;;;;10.07;9.05;;;24.80;1.00;;;;;;5111598;28;20026;-59
2022/08/20 00:15:56;;;;;;;9.40;8.35;;;24.80;1.00;;;;;;5110317;28;20030;-60
2022/08/20 00:18:22;;;;;;;9.90;8.80;;;24.80;1.00;;;;;;5094104;28;20388;-60
2022/08/20 00:20:50;;;;;;;9.35;8.30;;;24.80;1.00;;;;;;5111827;28;20073;-61
2022/08/20 00:23:17;;;;;;;9.27;8.25;;;24.80;1.00;;;;;;5112367;28;20152;-60
2022/08/20 00:25:43;;;;;;;8.32;7.53;;;24.80;1.00;;;;;;5111816;28;20053;-60
2022/08/20 00:28:10;;;;;;;8.93;8.05;;;24.80;1.00;;;;;;5112301;28;20106;-60
2022/08/20 00:30:37;;;;;;;9.60;8.70;;;24.80;1.00;;;;;;5111799;28;20380;-60
2022/08/20 00:33:16;;;;;;;9.80;8.68;;;24.80;1.00;;;;;;5094157;28;20405;-60
2022/08/20 00:35:46;;;;;;;9.48;8.55;;;24.80;1.00;;;;;;5111669;28;20119;-60
2022/08/20 00:38:12;;;;;;;10.32;9.25;;;24.80;1.00;;;;;;5111781;28;20098;-60
2022/08/20 00:41:07;;;;;;;11.18;8.98;;;24.80;1.00;;;;;;5107669;28;20095;-60
2022/08/20 00:43:32;;;;;;;10.38;8.20;;;24.80;1.00;;;;;;5089691;28;20388;-60
2022/08/20 00:46:00;;;;;;;9.73;8.73;;;24.80;1.00;;;;;;5111282;28;20047;-61
2022/08/20 00:48:30;;;;;;;9.13;8.07;;;24.80;1.00;;;;;;5112061;28;20560;-60
2022/08/20 00:51:09;;;;;;;9.30;8.20;;;24.80;1.00;;;;;;5111537;28;20036;-60
2022/08/20 00:53:36;;;;;;;7.53;6.90;;;24.70;1.00;;;;;;5112062;28;20023;-60
2022/08/20 00:56:04;;;;;;;9.15;7.47;;;24.70;1.00;;;;;;5111325;28;20024;-60
2022/08/20 00:58:30;;;;;;;8.00;7.20;;;24.70;1.00;;;;;;5106368;28;20055;-60
2022/08/20 01:00:57;;;;;;;7.68;6.85;;;24.70;1.00;;;;;;5109226;28;20030;-60
2022/08/20 01:03:22;;;;;;;8.65;7.95;;;24.60;1.00;;;;;;5111084;28;20015;-59
2022/08/20 01:05:50;;;;;;;11.02;8.15;;;24.60;1.00;;;;;;5110328;28;20027;-60
2022/08/20 01:08:20;;;;;;;9.75;8.85;;;24.60;1.00;;;;;;5109693;28;20558;-60
2022/08/20 01:10:48;;;;;;;9.55;8.38;;;24.60;1.00;;;;;;5109659;28;20039;-60
2022/08/20 01:13:19;;;;;;;10.43;8.40;;;24.60;1.00;;;;;;5111212;28;20040;-60
2022/08/20 01:15:47;;;;;;;11.43;8.88;;;24.60;1.00;;;;;;5107858;28;20032;-60
2022/08/20 01:18:17;;;;;;;12.57;9.07;;;24.60;1.00;;;;;;5091633;28;20050;-59
2022/08/20 01:20:48;;;;;;;11.60;8.48;;;24.60;1.00;;;;;;5107534;28;20055;-60
2022/08/20 01:23:33;;;;;;;9.77;8.55;;;24.60;1.00;;;;;;5111097;28;20477;-60
2022/08/20 01:26:07;;;;;;;12.27;10.10;;;24.50;1.00;;;;;;5108828;28;20026;-60
2022/08/20 01:28:52;;;;;;;11.07;9.35;;;24.50;1.00;;;;;;5108747;28;20054;-60
2022/08/20 01:31:23;;;;;;;12.50;11.15;;;24.50;1.00;;;;;;5105012;28;20024;-60
2022/08/20 01:33:50;;;;;;;14.27;11.40;;;24.50;1.00;;;;;;5110934;28;20032;-59
2022/08/20 01:36:20;;;;;;;11.55;10.45;;;24.40;1.00;;;;;;5109636;28;20055;-60
2022/08/20 01:38:46;;;;;;;13.25;10.07;;;24.40;1.00;;;;;;5114456;28;20100;-59
2022/08/20 01:41:34;;;;;;;10.02;8.98;;;24.40;1.00;;;;;;5113814;28;20107;-60
2022/08/20 01:43:59;;;;;;;12.02;9.57;;;24.40;1.00;;;;;;5113688;28;20030;-60
2022/08/20 01:46:34;;;;;;;9.85;8.77;;;24.40;1.00;;;;;;5113672;28;20114;-60
2022/08/20 01:49:12;;;;;;;9.77;8.75;;;24.40;1.00;;;;;;5094378;28;20340;-60
2022/08/20 01:51:38;;;;;;;10.10;8.88;;;24.30;1.00;;;;;;5108064;28;20048;-60
2022/08/20 01:54:05;;;;;;;10.93;8.88;;;24.30;1.00;;;;;;5102767;28;20025;-60
2022/08/20 01:56:33;;;;;;;10.13;9.13;;;24.30;1.00;;;;;;5108766;28;20038;-60
2022/08/20 01:59:06;;;;;;;11.88;10.68;;;24.30;1.00;;;;;;5115148;28;20043;-60
2022/08/20 02:01:38;;;;;;;12.60;11.38;;;24.30;1.00;;;;;;5114327;28;20167;-59
2022/08/20 02:04:06;;;;;;;15.00;13.43;;;24.20;1.00;;;;;;5101758;28;20342;-59
2022/08/20 02:06:36;;;;;;;13.25;12.05;;;24.30;1.00;;;;;;5114215;28;20478;-59
2022/08/20 02:09:03;;;;;;;14.13;11.98;;;24.30;1.00;;;;;;5115267;28;20028;-60
2022/08/20 02:11:30;;;;;;;11.43;10.32;;;24.30;1.00;;;;;;5114135;28;20485;-60
2022/08/20 02:13:57;;;;;;;12.88;11.55;;;24.30;1.00;;;;;;5114872;28;20155;-60
2022/08/20 02:16:27;;;;;;;12.73;11.45;;;24.30;1.00;;;;;;5106677;28;20032;-60
2022/08/20 02:18:57;;;;;;;12.35;11.07;;;24.20;1.00;;;;;;5109634;28;20032;-59
2022/08/20 02:21:26;;;;;;;12.43;11.30;;;24.20;1.00;;;;;;5113958;28;20024;-60
2022/08/20 02:23:52;;;;;;;12.40;10.95;;;24.20;1.00;;;;;;5114693;28;20054;-60
2022/08/20 02:26:18;;;;;;;13.05;11.18;;;24.20;1.00;;;;;;5107250;28;20421;-60
2022/08/20 02:28:47;;;;;;;14.25;12.77;;;24.20;1.00;;;;;;5107037;28;20027;-60
2022/08/20 02:31:13;;;;;;;13.38;11.95;;;24.20;1.00;;;;;;5113358;28;20138;-60
2022/08/20 02:33:39;;;;;;;15.55;12.38;;;24.10;1.00;;;;;;5108181;28;20020;-60
2022/08/20 02:36:05;;;;;;;13.27;11.77;;;24.10;1.00;;;;;;5114600;28;20338;-60
2022/08/20 02:38:33;;;;;;;11.20;10.20;;;24.10;1.00;;;;;;5113816;28;20110;-60
2022/08/20 02:41:00;;;;;;;15.98;10.20;;;24.10;1.00;;;;;;5114451;28;20110;-60
2022/08/20 02:43:25;;;;;;;10.93;9.40;;;24.10;1.00;;;;;;5113613;28;20059;-60
2022/08/20 02:45:51;;;;;;;11.77;10.27;;;24.10;1.00;;;;;;5114456;28;20044;-60
2022/08/20 02:48:22;;;;;;;10.13;8.55;;;24.10;1.00;;;;;;5112437;28;20027;-60
2022/08/20 02:51:06;;;;;;;10.18;9.02;;;24.10;1.00;;;;;;5113541;28;20026;-60
2022/08/20 02:53:36;;;;;;;13.07;8.82;;;24.10;1.00;;;;;;5112643;28;20036;-60
2022/08/20 02:56:04;;;;;;;10.40;8.25;;;24.00;1.00;;;;;;5108282;28;20512;-59
2022/08/20 02:58:30;;;;;;;7.70;6.95;;;24.00;1.00;;;;;;5113273;28;20418;-60
2022/08/20 03:00:56;;;;;;;8.05;6.32;;;24.00;1.00;;;;;;5114444;28;20033;-60
2022/08/20 03:03:23;;;;;;;7.38;6.55;;;24.00;1.00;;;;;;5112800;28;20057;-60
2022/08/20 03:05:52;;;;;;;8.80;7.20;;;24.00;1.00;;;;;;5113040;28;20035;-60
2022/08/20 03:08:17;;;;;;;10.40;6.93;;;23.90;1.00;;;;;;5112284;28;20027;-60
2022/08/20 03:10:46;;;;;;;7.93;7.03;;;23.90;1.00;;;;;;5113819;28;20440;-59
2022/08/20 03:13:12;;;;;;;9.98;8.25;;;23.90;1.00;;;;;;5112826;28;20116;-60
2022/08/20 03:15:41;;;;;;;7.85;7.07;;;23.90;1.00;;;;;;5095485;28;20032;-60
2022/08/20 03:18:06;;;;;;;7.32;6.63;;;23.90;1.00;;;;;;5110494;28;20032;-60
2022/08/20 03:20:32;;;;;;;8.10;7.30;;;23.80;1.00;;;;;;5095819;28;20111;-60
2022/08/20 03:22:58;;;;;;;8.52;7.10;;;23.90;1.00;;;;;;5099041;28;20051;-60
2022/08/20 03:25:25;;;;;;;7.47;6.53;;;23.80;1.00;;;;;;5096384;28;20020;-59
2022/08/20 03:27:50;;;;;;;10.60;7.57;;;23.80;1.00;;;;;;5098137;28;20432;-60
2022/08/20 03:30:17;;;;;;;10.60;7.10;;;23.80;1.00;;;;;;5113037;28;20030;-60
2022/08/20 03:32:43;;;;;;;8.98;8.07;;;23.70;1.00;;;;;;5113210;28;20035;-60
2022/08/20 03:35:12;;;;;;;8.95;7.43;;;23.70;1.00;;;;;;5112594;28;20023;-60
2022/08/20 03:37:39;;;;;;;9.35;8.45;;;23.70;1.00;;;;;;5113338;28;20020;-60
2022/08/20 03:40:08;;;;;;;9.13;8.20;;;23.70;1.00;;;;;;5112499;28;20043;-60
2022/08/20 03:42:34;;;;;;;9.43;8.13;;;23.70;1.00;;;;;;5094794;28;20448;-60
2022/08/20 03:45:00;;;;;;;10.30;8.70;;;23.70;1.00;;;;;;5112294;28;20047;-60
2022/08/20 03:47:26;;;;;;;9.80;8.23;;;23.50;1.00;;;;;;5113034;28;20377;-60
2022/08/20 03:49:51;;;;;;;8.90;7.88;;;23.60;1.00;;;;;;5112334;28;20055;-60
2022/08/20 03:52:18;;;;;;;9.57;8.27;;;23.60;1.00;;;;;;5112859;28;20078;-60
2022/08/20 03:54:44;;;;;;;8.32;7.32;;;23.60;1.00;;;;;;5112158;28;20057;-60
2022/08/20 03:57:14;;;;;;;10.25;7.43;;;23.60;1.00;;;;;;5094536;28;20027;-60
2022/08/20 03:59:41;;;;;;;7.70;6.93;;;23.50;1.00;;;;;;5111834;28;20489;-60
2022/08/20 04:02:07;;;;;;;6.45;5.45;;;23.50;1.00;;;;;;5094497;28;20034;-60
2022/08/20 04:04:33;;;;;;;7.28;6.03;;;23.50;1.00;;;;;;5112204;28;20062;-60
2022/08/20 04:06:59;;;;;;;5.90;5.40;;;23.50;1.00;;;;;;5112701;28;20020;-60
2022/08/20 04:09:25;;;;;;;6.47;5.40;;;23.50;1.00;;;;;;5111348;28;20611;-60
2022/08/20 04:11:55;;;;;;;6.63;5.63;;;23.50;1.00;;;;;;5111072;28;20512;-60
2022/08/20 04:14:20;;;;;;;6.55;5.93;;;23.40;1.00;;;;;;5111903;28;20042;-60
2022/08/20 04:16:49;;;;;;;6.25;5.65;;;23.40;1.00;;;;;;5112935;28;20115;-60
2022/08/20 04:19:15;;;;;;;5.10;4.60;;;23.40;1.00;;;;;;5101341;28;20055;-60
2022/08/20 04:21:41;;;;;;;4.93;4.40;;;23.40;1.00;;;;;;5112552;28;20031;-60
2022/08/20 04:24:06;;;;;;;5.90;4.28;;;23.40;1.00;;;;;;5111670;28;20027;-60
2022/08/20 04:26:35;;;;;;;4.53;4.13;;;23.40;1.00;;;;;;5112974;28;20031;-61
2022/08/20 04:29:00;;;;;;;4.78;4.20;;;23.30;1.00;;;;;;5111356;28;20024;-60
2022/08/20 04:31:32;;;;;;;4.85;3.53;;;23.30;1.00;;;;;;5093992;28;20096;-60
2022/08/20 04:33:58;;;;;;;5.43;3.83;;;23.20;1.00;;;;;;5086441;28;20062;-60
2022/08/20 04:36:42;;;;;;;3.80;3.35;;;23.30;1.00;;;;;;5098282;28;20438;-60
2022/08/20 04:39:07;;;;;;;6.28;3.65;;;23.20;1.00;;;;;;5111307;28;20210;-60
2022/08/20 04:41:33;;;;;;;4.07;3.67;;;23.30;1.00;;;;;;5112397;28;20055;-60
2022/08/20 04:44:00;;;;;;;3.80;3.40;;;23.30;1.00;;;;;;5111438;28;20350;-59
2022/08/20 04:46:27;;;;;;;3.97;3.00;;;23.30;1.00;;;;;;5112225;28;20028;-60
2022/08/20 04:48:54;;;;;;;5.72;3.17;;;23.30;1.00;;;;;;5110161;28;20011;-60
2022/08/20 04:51:21;;;;;;;4.70;2.97;;;23.30;1.00;;;;;;5093531;28;20587;-60
2022/08/20 04:53:53;;;;;;;3.45;2.60;;;23.20;1.00;;;;;;5087955;28;20135;-60
2022/08/20 04:56:24;;;;;;;4.90;2.70;;;23.20;1.00;;;;;;5110609;28;20034;-60
2022/08/20 04:58:52;;;;;;;3.92;3.10;;;23.20;1.00;;;;;;5111490;28;20181;-60
2022/08/20 05:01:18;;;;;;;4.93;3.70;;;23.20;1.00;;;;;;5111234;28;20028;-60
2022/08/20 05:03:46;;;;;;;5.70;3.63;;;23.20;1.00;;;;;;5093285;28;20401;-60
2022/08/20 05:06:12;;;;;;;3.85;3.33;;;23.20;1.00;;;;;;5110843;28;20016;-60
2022/08/20 05:08:41;;;;;;;3.85;3.38;;;23.20;1.00;;;;;;5111327;28;20042;-60
2022/08/20 05:11:08;;;;;;;3.05;2.80;;;23.20;1.00;;;;;;5112199;28;20023;-59
2022/08/20 05:13:34;;;;;;;3.03;2.83;;;23.20;1.00;;;;;;5113711;28;20118;-59
2022/08/20 05:16:01;;;;;;;5.05;2.78;;;23.20;1.00;;;;;;5116178;28;20027;-60
2022/08/20 05:18:27;;;;;;;4.97;2.85;;;23.20;1.00;;;;;;5114913;28;20023;-60
2022/08/20 05:20:53;;;;;;;5.60;2.85;;;23.10;1.00;;;;;;5115093;28;20107;-59
2022/08/20 05:23:19;;;;;;;3.25;2.88;;;23.10;1.00;;;;;;5115284;28;20118;-60
2022/08/20 05:25:50;;;;;;;5.90;2.88;;;23.10;1.00;;;;;;5115688;28;20031;-60
2022/08/20 05:28:23;;;;;;;4.13;3.42;;;23.10;1.00;;;;;;5115138;28;20063;-59
2022/08/20 05:30:49;;;;;;;2.60;2.28;;;23.20;1.00;;;;;;5084038;28;20069;-59
2022/08/20 05:33:17;;;;;;;3.63;3.10;;;23.20;1.00;;;;;;5103552;28;20042;-60
2022/08/20 05:35:43;;;;;;;6.85;3.17;;;23.20;1.00;;;;;;5115028;28;20477;-59
2022/08/20 05:38:11;;;;;;;2.90;2.55;;;23.20;1.00;;;;;;5114981;28;20031;-60
2022/08/20 05:40:39;;;;;;;2.72;2.50;;;23.10;1.00;;;;;;5115563;28;20038;-60
2022/08/20 05:43:05;;;;;;;3.42;2.80;;;23.20;1.00;;;;;;5114105;28;20032;-60
2022/08/20 05:45:37;;;;;;;4.55;2.80;;;23.20;1.00;;;;;;5115426;28;20070;-60
2022/08/20 05:48:10;;;;;;;2.88;2.63;;;23.20;1.00;;;;;;5114702;28;20028;-60
2022/08/20 05:50:37;;;;;;;3.15;2.75;;;23.20;1.00;;;;;;5115518;28;20056;-59
2022/08/20 05:53:02;;;;;;;3.13;2.50;;;23.20;1.00;;;;;;5114423;28;20118;-60
2022/08/20 05:55:28;;;;;;;3.38;2.70;;;23.20;1.00;;;;;;5115334;28;20047;-60
2022/08/20 05:57:58;;;;;;;3.53;2.92;;;23.20;1.00;;;;;;5114612;28;20028;-60
2022/08/20 06:00:36;;;;;;;3.15;2.47;;;23.20;1.00;;;;;;5115250;28;20016;-60
2022/08/20 06:05:45;;;;;;;3.85;2.38;;;23.20;1.00;;;;;;5101960;28;20136;-60
2022/08/20 06:08:12;;;;;;;4.72;2.60;;;23.20;1.00;;;;;;5114494;28;20106;-60
2022/08/20 06:10:39;;;;;;;4.47;3.08;;;23.20;1.00;;;;;;5115006;28;20024;-61
2022/08/20 06:13:05;;;;;;;4.15;3.03;;;23.20;1.00;;;;;;5113879;28;20378;-60
2022/08/20 06:15:32;;;;;;;3.28;2.80;;;23.20;1.00;;;;;;5114952;28;20027;-60
2022/08/20 06:17:57;;;;;;;5.55;2.95;;;23.20;1.00;;;;;;5113902;28;20382;-60
2022/08/20 06:20:23;;;;;;;4.45;3.05;;;23.20;1.00;;;;;;5114772;28;20108;-60
2022/08/20 06:22:49;;;;;;;3.67;2.97;;;23.20;1.00;;;;;;5113917;28;20020;-60
2022/08/20 06:25:14;;;;;;;3.03;2.72;;;23.20;1.00;;;;;;5114778;28;20107;-60
2022/08/20 06:27:42;;;;;;;5.30;2.63;;;23.00;1.00;;;;;;5113145;28;20065;-60
2022/08/20 06:30:11;;;;;;;8.60;3.55;;;23.20;1.00;;;;;;5114930;28;20424;-60
2022/08/20 06:35:58;;;;;;;3.50;2.50;;;23.20;1.00;;;;;;5114313;28;20173;-60
2022/08/20 06:38:24;;;;;;;4.55;2.70;;;23.20;1.00;;;;;;5114528;28;20057;-60
2022/08/20 06:40:49;;;;;;;2.95;2.67;;;23.20;1.00;;;;;;5114494;28;20535;-60
2022/08/20 06:43:15;;;;;;;3.08;2.15;;;23.10;1.00;;;;;;5113585;28;20093;-60
2022/08/20 06:45:41;;;;;;;4.47;2.40;;;23.20;1.00;;;;;;5096092;28;20554;-60
2022/08/20 06:48:12;;;;;;;2.97;2.65;;;23.10;1.00;;;;;;5113083;28;20028;-60
2022/08/20 06:50:42;;;;;;;3.22;2.35;;;23.20;1.00;;;;;;5096922;28;20077;-60
2022/08/20 06:53:09;;;;;;;6.32;2.60;;;23.30;1.00;;;;;;5085527;28;20131;-60
2022/08/20 06:55:58;;;;;;;3.92;2.10;;;23.20;1.00;;;;;;5106281;28;20350;-60
2022/08/20 06:58:23;;;;;;;2.38;2.17;;;23.30;1.00;;;;;;5110870;28;20462;-60
2022/08/20 07:00:49;;;;;;;3.05;2.25;;;23.30;1.00;;;;;;5114379;28;20111;-60
2022/08/20 07:03:15;;;;;;;2.78;2.22;;;23.40;1.00;;;;;;5112371;28;20533;-60
2022/08/20 07:05:43;;;;;;;1.77;1.67;;;23.30;1.00;;;;;;5112884;28;20040;-60
2022/08/20 07:08:13;;;;;;;2.13;1.70;;;23.30;1.00;;;;;;5113148;28;20381;-60
2022/08/20 07:10:41;;;;;;;3.40;1.70;;;23.30;1.00;;;;;;5113828;28;20024;-60
2022/08/20 07:13:08;;;;;;;3.50;1.60;;;23.40;1.00;;;;;;5112875;28;20059;-60
2022/08/20 07:15:34;;;;;;;2.58;1.50;;;23.40;1.00;;;;;;5111291;28;20023;-60
2022/08/20 07:18:03;;;;;;;1.83;1.63;;;23.50;1.00;;;;;;5113653;28;20025;-60
2022/08/20 07:20:30;;;;;;;1.92;1.65;;;23.40;1.00;;;;;;5111848;28;20436;-60
2022/08/20 07:22:56;;;;;;;1.80;1.70;;;23.50;1.00;;;;;;5113460;28;20023;-60
2022/08/20 07:25:22;;;;;;;2.08;1.55;;;23.50;1.00;;;;;;5112812;28;20020;-60
2022/08/20 07:27:49;;;;;;;1.13;1.13;;;23.60;1.00;;;;;;5113452;28;20016;-60
2022/08/20 07:33:05;;;;;;;1.48;1.38;;;23.70;1.00;;;;;;5108316;28;20091;-60
2022/08/20 07:35:30;;;;;;;2.17;1.40;;;23.80;1.00;;;;;;5112160;28;20217;-60
2022/08/20 07:37:56;;;;;;;2.03;1.80;;;23.80;1.00;;;;;;5081945;28;20058;-60
2022/08/20 07:40:26;;;;;;;1.70;1.58;;;23.80;1.00;;;;;;5110413;28;20023;-60
2022/08/20 07:42:53;;;;;;;3.25;1.83;;;23.80;1.00;;;;;;5113131;28;20016;-60
2022/08/20 07:45:19;;;;;;;2.90;1.75;;;23.90;1.00;;;;;;5097937;28;20040;-60
2022/08/20 07:47:46;;;;;;;2.10;1.88;;;24.00;1.00;;;;;;5112964;28;20031;-60
2022/08/20 07:50:15;;;;;;;2.22;1.65;;;23.90;1.00;;;;;;5112969;28;20055;-60
2022/08/20 07:52:44;;;;;;;2.38;1.52;;;24.00;1.00;;;;;;5111823;28;20043;-60
2022/08/20 07:55:13;;;;;;;8.50;2.42;;;24.00;1.00;;;;;;5112985;28;20438;-60
2022/08/20 07:57:51;;;;;;;1.88;1.50;;;24.10;1.00;;;;;;5112232;28;20469;-60
2022/08/20 08:00:20;;;;;;;2.88;1.60;;;24.10;1.00;;;;;;5112923;28;20031;-60
2022/08/20 08:02:45;;;;;;;4.80;2.03;;;24.10;1.00;;;;;;5112056;28;20020;-60
2022/08/20 08:05:12;;;;;;;1.60;1.50;;;24.20;1.00;;;;;;5093211;28;20024;-60
2022/08/20 08:07:39;;;;;;;2.17;1.40;;;24.20;1.00;;;;;;5093711;28;20024;-60
2022/08/20 08:10:07;;;;;;;2.38;1.60;;;24.30;1.00;;;;;;5112865;28;20023;-60
2022/08/20 08:12:40;;;;;;;1.80;1.70;;;24.30;1.00;;;;;;5111838;28;20019;-60
2022/08/20 08:15:14;;;;;;;6.63;1.85;;;24.30;1.00;;;;;;5112933;28;20023;-60
2022/08/20 08:17:40;;;;;;;;;;;24.40;1.00;;;;;;5112239;28;20024;-60
2022/08/20 08:20:07;;;;;;;2.75;2.42;;;24.40;1.00;;;;;;5112624;28;20002;-60
2022/08/20 08:22:33;;;;;;;2.30;1.80;;;24.50;1.00;;;;;;5111765;28;20485;-60
2022/08/20 08:25:01;;;;;;;2.47;1.70;;;24.60;1.00;;;;;;5111840;28;20050;-59
2022/08/20 08:27:32;;;;;;;2.40;1.90;;;24.60;1.00;;;;;;5111648;28;20026;-60
2022/08/20 08:30:02;;;;;;;3.92;1.83;;;24.60;1.00;;;;;;5111576;28;20457;-59
2022/08/20 08:32:31;;;;;;;1.88;1.77;;;24.60;1.00;;;;;;5111550;28;20458;-60
2022/08/20 08:34:57;;;;;;;2.95;2.08;;;24.60;1.00;;;;;;5098626;28;20016;-60
2022/08/20 08:37:23;;;;;;;2.05;1.83;;;24.80;1.00;;;;;;5110671;28;20019;-60
2022/08/20 08:39:49;;;;;;;3.53;1.83;;;24.80;1.00;;;;;;5112296;28;20096;-60
2022/08/20 08:42:25;;;;;;;1.70;1.55;;;24.80;1.00;;;;;;5108633;28;20055;-60
2022/08/20 08:44:52;;;;;;;2.13;1.67;;;24.90;1.00;;;;;;5112033;28;20032;-60
2022/08/20 08:47:30;;;;;;;1.90;1.80;;;25.00;1.00;;;;;;5111201;28;20027;-60
2022/08/20 08:49:56;;;;;;;1.83;1.60;;;25.00;1.00;;;;;;5112133;28;20086;-60
2022/08/20 08:52:28;;;;;;;1.90;1.80;;;25.10;1.00;;;;;;5110769;28;20093;-60
2022/08/20 08:55:03;;;;;;;1.83;1.70;;;25.10;1.00;;;;;;5111949;28;20043;-60
2022/08/20 08:57:29;;;;;;;1.40;1.30;;;25.20;1.00;;;;;;5111506;28;20181;-60
2022/08/20 09:00:12;;;;;;;1.65;1.55;;;25.20;1.00;;;;;;5112077;28;20031;-60
2022/08/20 09:02:41;;;;;;;2.83;1.95;;;25.30;1.00;;;;;;5111456;28;20334;-60
2022/08/20 09:05:16;;;;;;;1.60;1.50;;;25.40;1.00;;;;;;5112349;28;20031;-60
2022/08/20 09:07:46;;;;;;;5.57;1.65;;;25.40;1.00;;;;;;5110194;28;20024;-60
2022/08/20 09:10:11;;;;;;;1.40;1.40;;;25.50;1.00;;;;;;5112308;28;20350;-60
2022/08/20 09:12:37;;;;;;;2.03;1.45;;;25.50;1.00;;;;;;5092956;28;20036;-60
2022/08/20 09:15:03;;;;;;;1.35;1.35;;;25.40;1.00;;;;;;5076848;28;20022;-60
2022/08/20 09:17:29;;;;;;;2.50;1.90;;;25.50;1.00;;;;;;5109581;28;20124;-60
2022/08/20 09:20:00;;;;;;;1.70;1.48;;;25.50;1.00;;;;;;5111271;28;20088;-60
2022/08/20 09:22:26;;;;;;;1.73;1.25;;;25.80;1.00;;;;;;5111050;28;20027;-60
2022/08/20 09:24:52;;;;;;;1.85;1.75;;;25.90;1.00;;;;;;5111792;28;20016;-60
2022/08/20 09:27:18;;;;;;;3.13;1.60;;;25.90;1.00;;;;;;5110971;28;20031;-60
2022/08/20 09:29:44;;;;;;;1.73;1.58;;;25.90;1.00;;;;;;5112078;28;20020;-59
2022/08/20 09:32:13;;;;;;;1.85;1.70;;;25.90;1.00;;;;;;5111094;28;20378;-60
2022/08/20 09:48:26;;;;;;;2.65;1.80;;;26.20;1.00;;;;;;5105355;28;20051;-60
2022/08/20 09:50:52;;;;;;;5.60;1.92;;;26.40;1.00;;;;;;5111485;28;20061;-60
2022/08/20 09:53:19;;;;;;;1.90;1.80;;;26.40;1.00;;;;;;5110083;28;20401;-60
2022/08/20 09:55:50;;;;;;;4.00;1.70;;;26.40;1.00;;;;;;5111750;28;20438;-60
2022/08/20 09:58:25;;;;;;;3.30;2.22;;;26.40;1.00;;;;;;5110750;28;20067;-60
2022/08/20 10:00:51;;;;;;;2.95;1.85;;;26.50;1.00;;;;;;5114785;28;20050;-60
2022/08/20 10:03:17;;;;;;;1.95;1.83;;;26.50;1.00;;;;;;5114115;28;20473;-60
2022/08/20 10:05:43;;;;;;;1.95;1.75;;;26.80;1.00;;;;;;5115315;28;20024;-60
2022/08/20 10:08:09;;;;;;;1.70;1.60;;;26.90;1.00;;;;;;5095907;28;20496;-60
2022/08/20 10:10:35;;;;;;;4.07;1.95;;;26.90;1.00;;;;;;5115040;28;20030;-60
2022/08/20 10:13:01;;;;;;;6.65;2.10;;;26.90;1.00;;;;;;5112821;28;20062;-60
2022/08/20 10:15:27;;;;;;;2.40;1.95;;;26.90;1.00;;;;;;5107594;28;20055;-60
2022/08/20 10:17:53;;;;;;;2.88;1.90;;;27.10;1.00;;;;;;5114348;28;20054;-59
2022/08/20 10:20:19;;;;;;;2.88;2.15;;;27.10;1.00;;;;;;5114960;28;20016;-60
2022/08/20 10:22:45;;;;;;;4.50;1.90;;;27.10;1.00;;;;;;5115203;28;20114;-59
2022/08/20 10:25:11;;;;;;;2.55;2.38;;;27.20;1.00;;;;;;5100124;28;20027;-59
2022/08/20 10:27:37;;;;;;;2.58;2.00;;;27.20;1.00;;;;;;5094289;28;20031;-59
2022/08/20 10:30:04;;;;;;;1.85;1.75;;;27.20;1.00;;;;;;5100423;28;20032;-58
2022/08/20 10:32:30;;;;;;;1.80;1.60;;;27.20;1.00;;;;;;5113948;28;20035;-58
2022/08/20 10:34:55;;;;;;;2.00;1.90;;;27.30;1.00;;;;;;5113285;28;20106;-58
2022/08/20 10:37:23;;;;;;;2.13;1.55;;;27.40;1.00;;;;;;5100769;28;20037;-58
2022/08/20 10:39:48;;;;;;;1.95;1.70;;;27.50;1.00;;;;;;5095639;28;20368;-58
2022/08/20 10:42:14;;;;;;;2.25;2.05;;;27.50;1.00;;;;;;5114329;28;20034;-58
2022/08/20 10:44:40;;;;;;;2.15;2.00;;;27.50;1.00;;;;;;5103061;28;20028;-58
2022/08/20 10:47:32;;;;;;;2.75;2.08;;;27.50;1.00;;;;;;5092316;28;20134;-58
2022/08/20 10:50:00;;;;;;;2.38;2.13;;;27.70;1.00;;;;;;5107811;28;20044;-59
2022/08/20 10:52:26;;;;;;;2.38;2.15;;;27.80;1.00;;;;;;5114067;28;20031;-59
2022/08/20 10:54:53;;;;;;;2.85;2.17;;;27.90;1.00;;;;;;5113610;28;20030;-58
2022/08/20 10:57:24;;;;;;;2.30;2.10;;;28.00;1.00;;;;;;5114086;28;20028;-59
2022/08/20 10:59:52;;;;;;;3.13;2.20;;;28.00;1.00;;;;;;5113457;28;20020;-59
2022/08/20 11:02:18;;;;;;;2.30;2.10;;;28.10;1.00;;;;;;5112856;28;20023;-58
2022/08/20 11:04:44;;;;;;;2.20;2.05;;;28.20;1.00;;;;;;5113254;28;20023;-59
2022/08/20 11:07:29;;;;;;;2.00;1.90;;;28.30;1.00;;;;;;5114181;28;20031;-59
2022/08/20 11:16:39;;;;;;;1.83;1.73;;;28.40;1.00;;;;;;5110033;27;20039;-58
2022/08/20 11:19:04;;;;;;;1.95;1.85;;;28.40;1.00;;;;;;5112930;28;20036;-58
2022/08/20 11:21:30;;;;;;;2.50;2.08;;;28.50;1.00;;;;;;5112681;28;20024;-59
2022/08/20 11:23:56;;;;;;;2.00;1.90;;;28.60;1.00;;;;;;5113623;28;20024;-59
2022/08/20 11:26:23;;;;;;;2.65;1.70;;;28.70;1.00;;;;;;5112678;28;20122;-58
2022/08/20 11:28:49;;;;;;;3.97;2.10;;;28.90;1.00;;;;;;5113588;28;20031;-59
2022/08/20 11:31:15;;;;;;;3.67;2.15;;;28.90;1.00;;;;;;5112525;28;20130;-59
2022/08/20 11:33:40;;;;;;;2.65;1.77;;;28.90;1.00;;;;;;5113445;28;20042;-59
2022/08/20 11:36:06;;;;;;;3.00;2.70;;;29.00;1.00;;;;;;5112434;28;20039;-59
2022/08/20 11:38:32;;;;;;;2.10;2.00;;;29.20;1.00;;;;;;5113365;28;20469;-59
2022/08/20 11:40:58;;;;;;;2.35;2.05;;;29.30;1.00;;;;;;5112548;28;20016;-59
2022/08/20 11:43:23;;;;;;;1.90;1.80;;;29.30;1.00;;;;;;5113126;28;20354;-59
2022/08/20 11:45:53;;;;;;;2.65;1.85;;;29.40;1.00;;;;;;5112541;28;20121;-59
2022/08/20 11:48:19;;;;;;;2.35;2.20;;;29.50;1.00;;;;;;5113101;28;20036;-59
2022/08/20 11:50:46;;;;;;;2.40;1.73;;;29.60;1.00;;;;;;5112504;28;20110;-59
2022/08/20 11:53:12;;;;;;;2.13;2.03;;;29.80;1.00;;;;;;5081511;28;20036;-59
2022/08/20 11:55:38;;;;;;;3.58;2.40;;;29.90;1.00;;;;;;5108101;28;20354;-59
2022/08/20 11:58:04;;;;;;;2.60;2.40;;;30.10;1.00;;;;;;5083249;28;20100;-59
2022/08/20 12:00:30;;;;;;;2.30;2.10;;;30.30;1.00;;;;;;5108899;28;20103;-59
2022/08/20 12:02:56;;;;;;;1.77;1.67;;;30.50;1.00;;;;;;5112236;28;20472;-60
2022/08/20 12:05:22;;;;;;;2.25;1.58;;;31.20;1.00;;;;;;5111940;28;20123;-59
2022/08/20 12:07:47;;;;;;;2.95;2.13;;;32.40;1.00;;;;;;5112428;28;20473;-59
2022/08/20 12:10:14;;;;;;;2.78;2.03;;;34.00;1.00;;;;;;5112846;28;20107;-59
2022/08/20 12:12:39;;;;;;;2.35;2.25;;;35.40;1.00;;;;;;5093603;28;20031;-59
2022/08/20 12:15:07;;;;;;;2.30;2.20;;;39.40;1.00;;;;;;5112572;28;20027;-59
2022/08/20 12:17:34;;;;;;;2.78;2.58;;;42.40;1.00;;;;;;5093419;28;20024;-59
2022/08/20 12:20:03;;;;;;;2.92;2.72;;;44.10;1.00;;;;;;5093616;28;20338;-60
2022/08/20 12:22:28;;;;;;;3.03;2.83;;;45.20;1.00;;;;;;5111229;28;20020;-60
2022/08/20 12:24:54;;;;;;;3.10;2.90;;;45.70;1.00;;;;;;5112522;28;20388;-59
2022/08/20 12:27:23;;;;;;;4.15;3.85;;;46.40;1.00;;;;;;5111496;28;20031;-60
2022/08/20 12:29:52;;;;;;;3.65;3.30;;;46.10;1.00;;;;;;5112779;28;20055;-60
2022/08/20 12:32:19;;;;;;;3.25;3.15;;;45.40;1.00;;;;;;5111561;28;20034;-59
2022/08/20 12:34:44;;;;;;;3.83;3.63;;;43.40;1.00;;;;;;5112400;28;20031;-59
2022/08/20 12:37:16;;;;;;;4.63;4.20;;;43.90;1.00;;;;;;5111817;28;20023;-60
2022/08/20 12:39:44;;;;;;;3.80;3.65;;;44.20;1.00;;;;;;5112352;28;20024;-60
2022/08/20 12:42:11;;;;;;;4.85;4.05;;;42.70;1.00;;;;;;5110771;28;20503;-59
2022/08/20 12:44:37;;;;;;;3.90;3.80;;;41.40;1.00;;;;;;5112156;28;20059;-60
2022/08/20 12:47:21;;;;;;;4.60;4.40;;;41.70;1.00;;;;;;5093593;28;20030;-60
2022/08/20 12:49:53;;;;;;;5.28;4.82;;;40.90;1.00;;;;;;5112365;28;20149;-60
2022/08/20 12:52:20;;;;;;;4.70;4.50;;;39.70;1.00;;;;;;5111311;28;20123;-60
2022/08/20 12:54:46;;;;;;;4.88;4.50;;;40.50;1.00;;;;;;5110521;28;20046;-60
2022/08/20 12:57:22;;;;;;;4.95;4.53;;;43.40;1.00;;;;;;5103190;28;20084;-60
2022/08/20 12:59:47;;;;;;;5.07;4.80;;;46.50;99.90;;;;;;5112277;28;20127;-60
2022/08/20 13:02:13;;;;;;;4.93;4.72;;;47.70;99.90;;;;;;5110093;28;20122;-60
2022/08/20 13:04:38;;;;;;;5.55;5.25;;;48.00;99.90;;;;;;5112005;28;20430;-60
2022/08/20 13:07:05;;;;;;;5.65;5.45;;;47.70;99.90;;;;;;5111188;28;20087;-60
2022/08/20 13:09:31;;;;;;;4.93;4.80;;;47.40;99.90;;;;;;5109614;28;20092;-60
2022/08/20 13:11:57;;;;;;;5.38;5.07;;;48.80;99.90;;;;;;5110888;28;20031;-59
2022/08/20 13:14:24;;;;;;;5.35;5.00;;;49.10;99.90;;;;;;5093783;28;20024;-60
2022/08/20 13:16:58;;;;;;;5.43;5.22;;;49.80;99.90;;;;;;5110804;28;20107;-60
2022/08/20 13:19:25;;;;;;;5.57;5.38;;;50.60;99.90;;;;;;5110393;28;20117;-60
2022/08/20 13:21:51;;;;;;;4.97;4.78;;;50.80;99.90;;;;;;5110665;28;20047;-60
2022/08/20 13:24:16;;;;;;;5.20;5.10;;;50.90;99.90;;;;;;5111776;28;20032;-60
2022/08/20 13:26:42;;;;;;;4.90;4.70;;;51.30;99.90;;;;;;5111151;28;20022;-60
2022/08/20 13:29:08;;;;;;;4.95;4.85;;;50.30;99.90;;;;;;5111851;28;20028;-60